Time;durP1;ratioP1;P1;durP2;ratioP2;P2;SDS_P1;SDS_P2;PMS_P1;PMS_P2;Temp;Humidity;BMP_temperature;BMP_pressure;BME280_temperature;BME280_humidity;BME280_pressure;Samples;Min_cycle;Max_cycle;Signal;HPM_P1;HPM_P2
2022/05/18 00:00:37;;;;;;;10.60;8.10;;;;;;;14.83;95.04;101440.91;108202;1279;61463;-86
2022/05/18 00:03:22;;;;;;;10.90;7.90;;;;;;;14.81;94.92;101441.73;108044;1279;75153;-87
2022/05/18 00:06:13;;;;;;;;;;;;;;;;;;;;;
2022/05/18 00:08:46;;;;;;;12.00;8.30;;;;;;;14.73;95.59;101441.79;108089;1278;74138;-86
2022/05/18 00:11:37;;;;;;;;;;;;;;;;;;;;;
2022/05/18 00:14:20;;;;;;;11.30;8.00;;;;;;;14.66;95.90;101442.87;108083;1279;63099;-87
2022/05/18 00:16:58;;;;;;;14.30;9.30;;;;;;;14.63;96.19;101448.56;108208;1278;75063;-87
2022/05/18 00:19:48;;;;;;;13.00;9.10;;;;;;;14.61;96.61;101447.35;108102;1279;70324;-88
2022/05/18 00:22:30;;;;;;;12.20;8.60;;;;;;;14.59;96.80;101445.87;108253;1278;73412;-87
2022/05/18 00:25:11;;;;;;;14.10;10.10;;;;;;;14.58;97.02;101445.81;107816;1279;62373;-87
2022/05/18 00:27:41;;;;;;;16.50;9.30;;;;;;;14.56;96.92;101445.01;108118;1279;60933;-86
2022/05/18 00:30:41;;;;;;;10.90;8.20;;;;;;;14.54;97.19;101448.95;108219;1278;75723;-87
2022/05/18 00:33:51;;;;;;;11.10;8.90;;;;;;;14.51;97.42;101454.63;108166;1279;71643;-86
2022/05/18 00:36:30;;;;;;;13.70;9.10;;;;;;;14.48;97.47;101457.54;108096;1277;73228;-87
2022/05/18 00:39:27;;;;;;;11.10;8.40;;;;;;;14.44;97.68;101457.73;108056;1280;63104;-87
2022/05/18 00:42:07;;;;;;;9.40;6.60;;;;;;;14.41;98.30;101456.16;107990;1279;61621;-87
2022/05/18 00:45:00;;;;;;;11.60;8.50;;;;;;;14.37;98.17;101454.73;107973;1279;75991;-87
2022/05/18 00:47:27;;;;;;;13.70;9.10;;;;;;;14.34;98.41;101459.59;108160;1278;72387;-87
2022/05/18 00:50:32;;;;;;;11.70;8.90;;;;;;;14.30;98.66;101458.71;107730;1281;74641;-87
2022/05/18 00:53:40;;;;;;;13.10;9.30;;;;;;;14.28;98.91;101465.98;108033;1281;62939;-87
2022/05/18 00:56:26;;;;;;;13.70;7.50;;;;;;;14.27;98.85;101465.10;108195;1279;60447;-87
2022/05/18 00:59:02;;;;;;;12.60;9.30;;;;;;;14.25;99.21;101463.23;108071;1279;77100;-86
2022/05/18 01:01:56;;;;;;;13.90;9.40;;;;;;;14.24;99.35;101464.06;108042;1279;71371;-87
2022/05/18 01:04:39;;;;;;;10.90;7.70;;;;;;;14.21;99.25;101461.35;108004;1280;73336;-87
2022/05/18 01:07:40;;;;;;;10.80;8.80;;;;;;;14.19;99.39;101462.30;108076;1279;63419;-87
2022/05/18 01:10:22;;;;;;;;;;;;;;;;;;;;;
2022/05/18 01:13:08;;;;;;;;;;;;;;;;;;;;;
2022/05/18 01:15:38;;;;;;;10.80;8.10;;;;;;;14.13;99.86;101472.92;108165;1278;71951;-87
2022/05/18 01:18:20;;;;;;;10.60;7.60;;;;;;;14.13;99.98;101472.14;108120;1278;72948;-87
2022/05/18 01:21:01;;;;;;;;;;;;;;;;;;;;;
2022/05/18 01:24:22;;;;;;;13.50;9.10;;;;;;;14.10;100.00;101469.13;108214;1278;61794;-87
2022/05/18 01:27:41;;;;;;;12.50;8.80;;;;;;;14.08;100.00;101468.35;108221;1278;73696;-87
2022/05/18 01:30:51;;;;;;;10.80;7.70;;;;;;;14.07;100.00;101469.95;107812;1280;71376;-88
2022/05/18 01:34:01;;;;;;;10.50;7.70;;;;;;;14.05;100.00;101463.59;108094;1277;72992;-87
2022/05/18 01:36:38;;;;;;;10.80;8.10;;;;;;;14.05;100.00;101464.15;108232;1277;61424;-88
2022/05/18 01:39:22;;;;;;;11.20;8.20;;;;;;;14.05;100.00;101468.59;108266;1277;59581;-88
2022/05/18 01:42:22;;;;;;;12.10;8.70;;;;;;;14.05;100.00;101473.96;107977;1277;74945;-87
2022/05/18 01:45:03;;;;;;;11.00;9.00;;;;;;;14.04;100.00;101465.85;107733;1281;72125;-87
2022/05/18 01:47:48;;;;;;;10.90;8.30;;;;;;;14.03;100.00;101461.26;107743;1281;71759;-88
2022/05/18 01:50:31;;;;;;;11.00;7.90;;;;;;;14.03;100.00;101461.34;107769;1281;62325;-87
2022/05/18 01:53:27;;;;;;;12.40;9.40;;;;;;;14.02;100.00;101460.89;107703;1281;62181;-87
2022/05/18 01:56:15;;;;;;;11.90;9.50;;;;;;;14.03;100.00;101466.73;107764;1282;75860;-87
2022/05/18 01:59:00;;;;;;;13.50;8.80;;;;;;;14.02;100.00;101466.11;107778;1282;73332;-87
2022/05/18 02:01:30;;;;;;;14.60;8.70;;;;;;;13.98;100.00;101464.04;107481;1284;72381;-87
2022/05/18 02:04:23;;;;;;;;;;;;;;;;;;;;;
2022/05/18 02:07:19;;;;;;;;;;;;;;;;;;;;;
2022/05/18 02:10:06;;;;;;;10.90;7.40;;;;;;;13.97;100.00;101468.13;108056;1277;77364;-87
2022/05/18 02:13:01;;;;;;;12.10;8.40;;;;;;;13.96;100.00;101463.45;108270;1277;71809;-87
2022/05/18 02:15:58;;;;;;;12.40;8.50;;;;;;;13.93;100.00;101464.11;108094;1277;72364;-86
2022/05/18 02:18:33;;;;;;;12.90;7.80;;;;;;;13.92;100.00;101464.29;108191;1277;62912;-87
2022/05/18 02:21:14;;;;;;;13.10;9.50;;;;;;;13.91;100.00;101465.39;108236;1277;62603;-87
2022/05/18 02:24:05;;;;;;;12.00;9.20;;;;;;;13.90;100.00;101465.02;108216;1277;76035;-87
2022/05/18 02:26:45;;;;;;;11.50;8.80;;;;;;;13.88;100.00;101467.15;107668;1279;73019;-87
2022/05/18 02:29:41;;;;;;;;;;;;;;;;;;;;;
2022/05/18 02:32:26;;;;;;;10.60;7.90;;;;;;;13.85;100.00;101469.18;108200;1275;61621;-87
2022/05/18 02:35:43;;;;;;;12.90;8.80;;;;;;;13.85;100.00;101469.55;108075;1279;63242;-87
2022/05/18 02:38:20;;;;;;;15.00;9.80;;;;;;;13.85;100.00;101471.96;108072;1278;74197;-87
2022/05/18 02:41:13;;;;;;;12.40;9.00;;;;;;;13.85;100.00;101472.98;107896;1277;72649;-86
2022/05/18 02:43:58;;;;;;;;;;;;;;;;;;;;;
2022/05/18 02:46:49;;;;;;;13.10;9.70;;;;;;;13.84;100.00;101479.14;107891;1277;62870;-88
2022/05/18 02:49:40;;;;;;;13.90;10.70;;;;;;;13.84;100.00;101476.52;107914;1277;60261;-87
2022/05/18 02:52:39;;;;;;;;;;;;;;;;;;;;;
2022/05/18 02:58:33;;;;;;;12.80;10.30;;;;;;;13.83;100.00;101483.89;107962;1277;73545;-87
2022/05/18 03:01:32;;;;;;;15.00;9.30;;;;;;;13.82;100.00;101477.86;108056;1277;62687;-87
2022/05/18 03:04:59;;;;;;;14.50;10.90;;;;;;;13.82;100.00;101479.73;107938;1277;60614;-87
2022/05/18 03:07:58;;;;;;;16.70;10.50;;;;;;;13.82;100.00;101480.98;108068;1276;75274;-86
2022/05/18 03:10:53;;;;;;;14.90;10.30;;;;;;;13.83;100.00;101483.72;107823;1279;70712;-87
2022/05/18 03:13:42;;;;;;;15.00;10.40;;;;;;;13.85;100.00;101485.88;108119;1277;72763;-87
2022/05/18 03:16:24;;;;;;;15.30;11.80;;;;;;;13.85;100.00;101489.36;107734;1279;63623;-88
2022/05/18 03:19:53;;;;;;;15.90;11.80;;;;;;;13.86;100.00;101491.92;108075;1277;60872;-86
2022/05/18 03:26:44;;;;;;;12.90;10.20;;;;;;;13.86;100.00;101494.16;107975;1277;71448;-88
2022/05/18 03:30:03;;;;;;;;;;;;;;;;;;;;;
2022/05/18 03:32:44;;;;;;;13.80;11.00;;;;;;;13.90;100.00;101491.87;107989;1277;61295;-87
2022/05/18 03:35:19;;;;;;;18.10;11.80;;;;;;;13.89;100.00;101484.14;107897;1278;59675;-87
2022/05/18 03:38:05;;;;;;;13.10;11.00;;;;;;;13.94;100.00;101487.17;108112;1277;76154;-87
2022/05/18 03:40:58;;;;;;;;;;;;;;;;;;;;;
2022/05/18 03:43:36;;;;;;;16.60;11.50;;;;;;;13.98;100.00;101488.45;107813;1277;73306;-86
2022/05/18 03:46:13;;;;;;;17.00;11.80;;;;;;;14.01;100.00;101491.12;107928;1278;62003;-86
2022/05/18 03:48:41;;;;;;;19.50;12.10;;;;;;;14.04;100.00;101490.38;108248;1277;61253;-86
2022/05/18 03:51:13;;;;;;;13.30;10.70;;;;;;;14.08;100.00;101492.91;108137;1277;74976;-86
2022/05/18 03:53:43;;;;;;;14.20;9.80;;;;;;;14.12;100.00;101493.38;108124;1278;71818;-85
2022/05/18 03:56:20;;;;;;;19.60;12.90;;;;;;;14.16;100.00;101495.71;108109;1277;75440;-87
2022/05/18 03:58:47;;;;;;;15.60;11.30;;;;;;;14.21;100.00;101497.98;108023;1277;60648;-87
2022/05/18 04:01:17;;;;;;;15.80;11.40;;;;;;;14.26;100.00;101498.84;108169;1278;62156;-86
2022/05/18 04:03:48;;;;;;;18.30;12.60;;;;;;;14.31;100.00;101501.50;107755;1279;75103;-86
2022/05/18 04:06:21;;;;;;;13.20;9.90;;;;;;;14.36;100.00;101504.01;108183;1277;72359;-87
2022/05/18 04:08:54;;;;;;;13.60;11.00;;;;;;;14.41;100.00;101508.03;108301;1277;73652;-86
2022/05/18 04:11:24;;;;;;;14.80;10.70;;;;;;;14.45;100.00;101511.39;108324;1277;63277;-86
2022/05/18 04:13:59;;;;;;;14.80;11.00;;;;;;;14.50;100.00;101512.24;108277;1278;62225;-86
2022/05/18 04:16:27;;;;;;;15.10;13.00;;;;;;;14.51;100.00;101506.61;108344;1277;75917;-88
2022/05/18 04:19:00;;;;;;;19.70;13.30;;;;;;;14.59;100.00;101512.91;108327;1277;70989;-87
2022/05/18 04:21:31;;;;;;;13.90;10.40;;;;;;;14.65;100.00;101513.37;108215;1277;74087;-87
2022/05/18 04:24:01;;;;;;;13.20;10.50;;;;;;;14.66;100.00;101508.21;108199;1278;63704;-87
2022/05/18 04:26:34;;;;;;;13.50;10.80;;;;;;;14.71;100.00;101509.30;108330;1270;62070;-87
2022/05/18 04:29:05;;;;;;;14.00;10.10;;;;;;;14.77;100.00;101516.55;108142;1277;75064;-86
2022/05/18 04:31:46;;;;;;;14.70;10.90;;;;;;;14.81;100.00;101520.90;108381;1276;71502;-87
2022/05/18 04:34:26;;;;;;;14.00;9.10;;;;;;;14.84;100.00;101521.73;108150;1278;72830;-87
2022/05/18 04:37:01;;;;;;;13.50;10.70;;;;;;;14.88;100.00;101526.67;108319;1277;63613;-88
2022/05/18 04:39:42;;;;;;;14.30;10.70;;;;;;;14.91;100.00;101528.04;108518;1277;61411;-87
2022/05/18 04:42:16;;;;;;;16.60;11.70;;;;;;;14.96;100.00;101529.49;108372;1277;74951;-84
2022/05/18 04:44:43;;;;;;;14.60;9.70;;;;;;;14.99;100.00;101524.24;108121;1277;71352;-84
2022/05/18 04:47:09;;;;;;;27.00;13.50;;;;;;;15.03;100.00;101520.18;108126;1277;72932;-83
2022/05/18 04:49:36;;;;;;;20.30;12.40;;;;;;;15.08;100.00;101518.94;108062;1277;60993;-83
2022/05/18 04:52:03;;;;;;;12.80;9.30;;;;;;;15.12;100.00;101522.16;108254;1277;60263;-83
2022/05/18 05:01:24;;;;;;;;;;;;;;;;;;;;;
2022/05/18 05:04:17;;;;;;;16.00;11.50;;;;;;;15.23;100.00;101525.10;108161;1266;60578;-85
2022/05/18 05:06:47;;;;;;;15.00;10.20;;;;;;;15.29;100.00;101524.64;107876;1278;59284;-86
2022/05/18 05:09:30;;;;;;;14.00;9.90;;;;;;;15.35;100.00;101526.37;108027;1277;75098;-86
2022/05/18 05:12:29;;;;;;;;;;;;;;;;;;;;;
2022/05/18 05:15:41;;;;;;;;;;;;;;;;;;;;;
2022/05/18 05:18:53;;;;;;;12.60;9.60;;;;;;;15.56;100.00;101532.02;108110;1277;61548;-87
2022/05/18 05:21:42;;;;;;;;;;;;;;;;;;;;;
2022/05/18 05:24:57;;;;;;;16.40;11.20;;;;;;;15.69;99.58;101536.70;108008;1277;75376;-86
2022/05/18 05:27:42;;;;;;;15.00;11.10;;;;;;;15.75;99.28;101541.32;108002;1277;72714;-87
2022/05/18 05:30:46;;;;;;;15.30;10.80;;;;;;;15.79;98.96;101542.94;108093;1277;73026;-87
2022/05/18 05:33:21;;;;;;;16.30;10.80;;;;;;;15.83;98.70;101540.39;108116;1277;64718;-87
2022/05/18 05:36:16;;;;;;;15.20;10.40;;;;;;;15.86;98.52;101541.04;107832;1277;61917;-87
2022/05/18 05:38:48;;;;;;;14.40;11.50;;;;;;;15.91;98.53;101533.30;108065;1277;74482;-88
2022/05/18 05:41:45;;;;;;;13.40;11.30;;;;;;;15.98;98.35;101534.62;107976;1277;71613;-87
2022/05/18 05:44:13;;;;;;;14.70;11.00;;;;;;;16.06;97.95;101534.25;107827;1279;74100;-87
2022/05/18 05:46:39;;;;;;;18.50;11.90;;;;;;;16.14;97.76;101534.23;108068;1277;62275;-87
2022/05/18 05:49:07;;;;;;;13.90;10.90;;;;;;;16.22;97.44;101538.02;107704;1279;60948;-87
2022/05/18 05:51:36;;;;;;;15.30;11.00;;;;;;;16.26;97.07;101530.86;108390;1279;74118;-88
2022/05/18 05:54:16;;;;;;;17.30;11.30;;;;;;;16.43;96.99;101535.62;108497;1277;72882;-87
2022/05/18 05:56:47;;;;;;;14.90;11.60;;;;;;;16.65;97.06;101536.58;108401;1277;73686;-87
2022/05/18 05:59:25;;;;;;;13.80;11.30;;;;;;;16.88;96.57;101535.83;108447;1277;62977;-87
2022/05/18 06:02:03;;;;;;;12.80;9.60;;;;;;;17.14;95.83;101533.21;108225;1277;61325;-86
2022/05/18 06:04:39;;;;;;;13.30;11.50;;;;;;;17.36;94.95;101532.14;107891;1279;76595;-86
2022/05/18 06:07:06;;;;;;;14.90;9.50;;;;;;;17.59;93.53;101533.59;108276;1277;70949;-86
2022/05/18 06:09:33;;;;;;;12.50;9.50;;;;;;;17.79;92.55;101535.52;108089;1277;73385;-86
2022/05/18 06:12:02;;;;;;;14.00;8.80;;;;;;;17.95;90.86;101538.73;108317;1277;62773;-86
2022/05/18 06:14:29;;;;;;;12.90;10.30;;;;;;;18.10;90.34;101539.83;108160;1279;61754;-84
2022/05/18 06:16:56;;;;;;;13.80;10.90;;;;;;;18.22;88.57;101532.44;108202;1280;74689;-83
2022/05/18 06:19:22;;;;;;;12.30;9.90;;;;;;;18.30;88.57;101535.38;107903;1279;72705;-84
2022/05/18 06:21:50;;;;;;;7.70;5.80;;;;;;;18.35;87.88;101535.56;108100;1278;72864;-84
2022/05/18 06:24:18;;;;;;;62.20;48.40;;;;;;;18.38;86.33;101539.39;108280;1277;62314;-84
2022/05/18 06:26:44;;;;;;;13.60;10.10;;;;;;;18.42;86.58;101537.05;108010;1279;60758;-84
2022/05/18 06:29:14;;;;;;;11.50;8.70;;;;;;;18.51;86.26;101542.26;108013;1279;77123;-84
2022/05/18 06:31:40;;;;;;;13.50;9.10;;;;;;;18.62;86.22;101541.26;108152;1279;72061;-84
2022/05/18 06:34:07;;;;;;;10.50;8.20;;;;;;;18.73;83.88;101541.59;108069;1279;74023;-84
2022/05/18 06:36:35;;;;;;;12.10;7.90;;;;;;;18.77;82.13;101538.39;108040;1279;62292;-84
2022/05/18 06:39:03;;;;;;;11.40;8.70;;;;;;;18.75;81.16;101542.08;107947;1279;60536;-83
2022/05/18 06:41:33;;;;;;;10.40;8.00;;;;;;;18.73;80.95;101545.92;108240;1278;76386;-84
2022/05/18 06:44:04;;;;;;;10.20;7.30;;;;;;;18.77;81.37;101545.19;108130;1279;71467;-84
2022/05/18 06:46:34;;;;;;;8.90;7.90;;;;;;;18.89;82.07;101545.61;107928;1279;73210;-84
2022/05/18 06:49:03;;;;;;;9.50;7.80;;;;;;;19.06;81.91;101547.47;108235;1278;61359;-85
2022/05/18 06:51:33;;;;;;;10.20;7.10;;;;;;;19.26;81.22;101548.41;108040;1277;59636;-84
2022/05/18 06:53:59;;;;;;;9.20;7.50;;;;;;;19.50;81.07;101549.69;107758;1281;76113;-84
2022/05/18 06:56:29;;;;;;;8.50;7.00;;;;;;;19.74;80.36;101547.99;108007;1277;72743;-83
2022/05/18 06:58:57;;;;;;;14.00;9.90;;;;;;;19.97;79.69;101543.31;108092;1280;74022;-83
2022/05/18 07:01:25;;;;;;;8.10;6.60;;;;;;;20.18;78.20;101545.13;107803;1279;61138;-83
2022/05/18 07:03:51;;;;;;;9.70;7.30;;;;;;;20.34;77.36;101542.22;107911;1279;61336;-83
2022/05/18 07:06:28;;;;;;;8.00;6.20;;;;;;;20.51;76.68;101544.08;108093;1279;74937;-83
2022/05/18 07:08:55;;;;;;;7.30;5.90;;;;;;;20.65;75.32;101548.30;108213;1278;70163;-83
2022/05/18 07:11:23;;;;;;;17.00;13.60;;;;;;;20.74;74.32;101543.73;108038;1278;73012;-82
2022/05/18 07:13:54;;;;;;;14.80;7.00;;;;;;;20.86;75.12;101545.19;108247;1277;62054;-83
2022/05/18 07:16:23;;;;;;;12.80;7.40;;;;;;;21.04;74.05;101538.73;107882;1279;60342;-83
2022/05/18 07:18:51;;;;;;;7.70;6.10;;;;;;;21.17;73.25;101544.71;108232;1277;74651;-83
2022/05/18 07:21:18;;;;;;;8.90;5.50;;;;;;;21.27;72.20;101549.92;108048;1278;72285;-83
2022/05/18 07:23:45;;;;;;;5.10;3.40;;;;;;;21.39;71.71;101552.62;108249;1278;73028;-82
2022/05/18 07:26:13;;;;;;;10.20;6.10;;;;;;;21.42;69.30;101553.30;108226;1278;63000;-85
2022/05/18 07:28:40;;;;;;;7.40;5.90;;;;;;;21.42;69.22;101550.98;108523;1277;60605;-86
2022/05/18 07:31:10;;;;;;;10.80;6.40;;;;;;;21.52;70.13;101549.44;108264;1277;75770;-86
2022/05/18 07:33:56;;;;;;;4.80;4.00;;;;;;;21.70;69.56;101546.47;107978;1279;73592;-83
2022/05/18 07:36:23;;;;;;;11.40;6.70;;;;;;;21.81;68.42;101542.70;107890;1281;73673;-83
2022/05/18 07:38:50;;;;;;;8.00;6.10;;;;;;;21.96;68.53;101545.06;108160;1278;60664;-83
2022/05/18 07:41:17;;;;;;;6.10;4.90;;;;;;;22.11;68.03;101543.88;108189;1277;61868;-83
2022/05/18 07:43:43;;;;;;;8.60;6.20;;;;;;;22.26;66.42;101546.02;108167;1277;77226;-82
2022/05/18 07:46:12;;;;;;;11.30;8.40;;;;;;;22.33;66.84;101541.66;108263;1277;72549;-84
2022/05/18 07:48:39;;;;;;;7.50;4.60;;;;;;;22.54;66.72;101539.71;108046;1279;73777;-83
2022/05/18 07:51:10;;;;;;;6.70;5.10;;;;;;;22.70;64.79;101539.08;107955;1277;60758;-83
2022/05/18 07:53:36;;;;;;;6.10;4.60;;;;;;;22.79;63.61;101538.63;108244;1277;60558;-83
2022/05/18 07:56:09;;;;;;;6.40;4.80;;;;;;;22.91;64.49;101543.91;108134;1278;75232;-83
2022/05/18 07:58:36;;;;;;;4.00;2.90;;;;;;;22.92;64.32;101540.05;107952;1280;73463;-86
2022/05/18 08:01:02;;;;;;;7.70;3.80;;;;;;;22.91;64.31;101542.58;108124;1278;74324;-83
2022/05/18 08:03:37;;;;;;;7.30;4.50;;;;;;;22.86;63.89;101538.95;108178;1277;61565;-83
2022/05/18 08:06:09;;;;;;;6.60;5.10;;;;;;;22.78;64.75;101540.44;108223;1280;61374;-83
2022/05/18 08:08:36;;;;;;;6.50;4.30;;;;;;;22.71;64.61;101540.10;108137;1278;76411;-82
2022/05/18 08:16:40;;;;;;;6.10;4.50;;;;;;;22.74;64.88;101540.88;108257;1277;61463;-84
2022/05/18 08:19:12;;;;;;;8.90;4.90;;;;;;;22.88;64.73;101542.44;108132;1277;61701;-85
2022/05/18 08:21:38;;;;;;;8.90;4.80;;;;;;;23.04;64.35;101535.02;108137;1277;74723;-87
2022/05/18 08:24:06;;;;;;;5.00;3.30;;;;;;;23.23;64.10;101538.79;108218;1278;72438;-85
2022/05/18 08:26:33;;;;;;;5.50;4.00;;;;;;;23.37;63.08;101538.30;108114;1279;73402;-86
2022/05/18 08:29:02;;;;;;;4.60;3.90;;;;;;;23.49;63.72;101535.46;108017;1279;61788;-85
2022/05/18 08:31:28;;;;;;;4.80;4.10;;;;;;;23.68;63.41;101529.56;108176;1278;60555;-85
2022/05/18 08:33:55;;;;;;;3.60;3.00;;;;;;;23.86;62.69;101521.72;108179;1278;75178;-85
2022/05/18 08:36:25;;;;;;;3.60;2.40;;;;;;;23.96;59.97;101515.69;107951;1280;72604;-85
2022/05/18 08:38:53;;;;;;;5.50;2.80;;;;;;;24.00;58.48;101516.69;108170;1277;72372;-86
2022/05/18 08:41:34;;;;;;;5.70;3.00;;;;;;;24.02;58.46;101519.73;108080;1278;60583;-85
2022/05/18 08:44:05;;;;;;;6.50;2.80;;;;;;;24.12;58.63;101515.49;108122;1279;60465;-85
2022/05/18 08:46:52;;;;;;;4.10;2.20;;;;;;;24.23;58.54;101515.67;108129;1279;76132;-85
2022/05/18 08:49:39;;;;;;;3.50;2.40;;;;;;;24.42;57.21;101516.38;108148;1279;71116;-85
2022/05/18 08:52:42;;;;;;;4.30;2.10;;;;;;;24.63;56.76;101518.49;108192;1278;72899;-83
2022/05/18 08:55:43;;;;;;;4.30;2.00;;;;;;;24.81;53.67;101514.96;108009;1279;62257;-85
2022/05/18 08:58:21;;;;;;;4.80;1.90;;;;;;;24.93;52.36;101515.89;108143;1279;60775;-85
2022/05/18 09:00:56;;;;;;;2.30;1.50;;;;;;;24.98;49.99;101521.27;108203;1278;75143;-85
2022/05/18 09:03:53;;;;;;;4.90;1.50;;;;;;;25.07;49.00;101519.48;107663;1279;440249;-85
2022/05/18 09:06:47;;;;;;;3.00;1.70;;;;;;;25.08;48.87;101516.94;107962;1278;73109;-84
2022/05/18 09:12:06;;;;;;;5.80;2.10;;;;;;;25.10;48.75;101515.39;108177;1279;59500;-84
2022/05/18 09:14:37;;;;;;;4.00;1.70;;;;;;;25.13;49.22;101514.77;108112;1279;73941;-84
2022/05/18 09:17:26;;;;;;;3.30;1.70;;;;;;;25.15;49.65;101515.80;107930;1278;72965;-84
2022/05/18 09:20:13;;;;;;;2.30;1.50;;;;;;;25.25;49.84;101511.91;107853;1281;73427;-84
2022/05/18 09:23:05;;;;;;;2.60;1.60;;;;;;;25.36;49.89;101517.54;107843;1281;59845;-84
2022/05/18 09:25:58;;;;;;;5.70;2.20;;;;;;;25.45;48.62;101518.33;108193;1277;60687;-84
2022/05/18 09:28:49;;;;;;;2.80;1.90;;;;;;;25.45;48.93;101516.94;108218;1277;74928;-85
2022/05/18 09:31:18;;;;;;;4.10;2.10;;;;;;;25.49;49.15;101516.64;107931;1278;70592;-84
2022/05/18 09:34:07;;;;;;;3.50;2.30;;;;;;;25.53;48.96;101515.83;107955;1279;73682;-84
2022/05/18 09:36:49;;;;;;;4.70;1.70;;;;;;;25.61;49.02;101515.53;107978;1277;60305;-84
2022/05/18 09:39:19;;;;;;;3.50;1.90;;;;;;;25.71;49.51;101512.31;107992;1279;60596;-84
2022/05/18 09:41:59;;;;;;;3.40;1.90;;;;;;;25.90;49.01;101506.98;108174;1278;75401;-84
2022/05/18 09:44:34;;;;;;;4.80;1.70;;;;;;;26.02;48.41;101508.67;108267;1277;72625;-84
2022/05/18 09:47:02;;;;;;;4.40;2.10;;;;;;;26.10;47.84;101506.23;108197;1277;72838;-83
2022/05/18 09:49:37;;;;;;;6.70;4.00;;;;;;;26.24;48.93;101505.95;108233;1277;60820;-82
2022/05/18 09:52:05;;;;;;;3.40;2.20;;;;;;;26.33;47.64;101505.59;107978;1279;61000;-82
2022/05/18 09:54:34;;;;;;;4.20;2.30;;;;;;;26.44;47.51;101496.25;108142;1278;74960;-82
2022/05/18 09:57:18;;;;;;;5.10;2.80;;;;;;;26.58;46.95;101496.84;108196;1277;71730;-81
2022/05/18 09:59:50;;;;;;;6.40;2.60;;;;;;;26.66;46.69;101494.46;108169;1278;72928;-83
2022/05/18 10:07:58;;;;;;;4.80;2.00;;;;;;;27.21;46.87;101486.60;108486;1278;74601;-81
2022/05/18 10:10:31;;;;;;;4.00;1.70;;;;;;;27.36;46.05;101487.05;108501;1278;58471;-82
2022/05/18 10:13:10;;;;;;;5.20;2.10;;;;;;;27.31;46.19;101488.93;108593;1277;74258;-82
2022/05/18 10:16:36;;;;;;;2.80;1.60;;;;;;;27.11;45.90;101496.20;108622;1278;62510;-85
2022/05/18 10:19:04;;;;;;;3.00;2.20;;;;;;;26.89;46.47;101494.52;107981;1279;60717;-87
2022/05/18 10:21:50;;;;;;;4.60;2.00;;;;;;;26.82;46.73;101495.02;107897;1278;75345;-86
2022/05/18 10:24:25;;;;;;;6.40;3.70;;;;;;;26.92;46.97;101494.77;108288;1278;71365;-85
2022/05/18 10:27:11;;;;;;;4.00;1.90;;;;;;;27.09;46.05;101492.38;107908;1279;72921;-85
2022/05/18 10:29:38;;;;;;;3.80;1.90;;;;;;;27.13;46.30;101491.04;108207;1278;60629;-86
2022/05/18 10:32:09;;;;;;;8.40;5.20;;;;;;;27.26;47.10;101485.65;108228;1278;60584;-86
2022/05/18 10:34:51;;;;;;;4.50;2.00;;;;;;;27.45;46.50;101482.93;107985;1278;73933;-83
2022/05/18 10:37:28;;;;;;;5.10;2.50;;;;;;;27.59;45.39;101487.42;108308;1279;71544;-83
2022/05/18 10:40:09;;;;;;;3.40;1.70;;;;;;;27.67;44.03;101482.52;108470;1279;74982;-83
2022/05/18 10:42:54;;;;;;;4.10;2.00;;;;;;;27.74;43.16;101484.39;108440;1278;60823;-81
2022/05/18 10:45:27;;;;;;;2.10;1.50;;;;;;;27.82;42.07;101486.58;108385;1278;60569;-81
2022/05/18 10:47:57;;;;;;;4.00;1.90;;;;;;;27.91;41.62;101473.69;108456;1278;73888;-82
2022/05/18 10:50:35;;;;;;;2.90;1.50;;;;;;;28.03;41.46;101477.11;108510;1278;71478;-82
2022/05/18 10:53:13;;;;;;;13.00;2.30;;;;;;;28.14;41.60;101471.71;108131;1278;73027;-81
2022/05/18 10:55:52;;;;;;;2.70;1.40;;;;;;;28.26;40.60;101467.11;108229;1278;61558;-81
2022/05/18 10:58:29;;;;;;;3.80;1.70;;;;;;;28.29;38.59;101471.80;108316;1279;60385;-82
2022/05/18 11:01:29;;;;;;;4.30;1.50;;;;;;;28.37;38.40;101469.34;108220;1278;75004;-82
2022/05/18 11:03:59;;;;;;;2.60;1.10;;;;;;;28.58;38.65;101464.13;108222;1279;72886;-82
2022/05/18 11:06:29;;;;;;;5.10;2.50;;;;;;;28.72;36.65;101468.56;108171;1279;74174;-82
2022/05/18 11:08:59;;;;;;;3.70;1.40;;;;;;;28.73;36.01;101467.23;108048;1278;62121;-82
2022/05/18 11:11:50;;;;;;;1.90;1.30;;;;;;;28.73;36.36;101461.08;108232;1278;60412;-82
2022/05/18 11:14:27;;;;;;;3.30;1.30;;;;;;;28.76;38.93;101459.31;108261;1277;74964;-82
2022/05/18 11:17:13;;;;;;;4.00;1.70;;;;;;;28.75;37.74;101462.33;108148;1278;72477;-82
2022/05/18 11:19:54;;;;;;;5.80;1.70;;;;;;;28.74;38.24;101457.52;108165;1279;73102;-85
2022/05/18 11:22:45;;;;;;;2.50;1.80;;;;;;;28.79;38.21;101452.63;107870;1280;61801;-84
2022/05/18 11:25:15;;;;;;;3.80;1.50;;;;;;;28.96;39.09;101447.59;108034;1279;62014;-84
2022/05/18 11:28:20;;;;;;;4.50;1.80;;;;;;;29.19;39.45;101440.73;108179;1278;76264;-84
2022/05/18 11:31:12;;;;;;;3.70;1.80;;;;;;;29.25;37.50;101447.30;108086;1280;70153;-84
2022/05/18 11:33:49;;;;;;;3.70;1.30;;;;;;;29.21;36.69;101450.44;108089;1279;73032;-84
2022/05/18 11:36:44;;;;;;;7.00;4.70;;;;;;;29.22;36.18;101452.30;108109;1279;60689;-84
2022/05/18 11:39:14;;;;;;;;;;;;;;;29.25;37.34;101444.53;108215;1277;61731;-84
2022/05/18 11:41:58;;;;;;;5.10;1.80;;;;;;;29.39;38.58;101442.85;108148;1278;75084;-84
2022/05/18 11:44:50;;;;;;;4.30;2.00;;;;;;;29.60;37.75;101445.64;108110;1279;72568;-84
2022/05/18 11:47:38;;;;;;;3.20;1.90;;;;;;;29.66;37.47;101442.64;107985;1279;72950;-85
2022/05/18 11:50:31;;;;;;;4.40;1.70;;;;;;;29.73;37.80;101443.99;108195;1278;60671;-85
2022/05/18 11:53:25;;;;;;;4.80;1.90;;;;;;;29.84;37.08;101429.67;108074;1279;59202;-85
2022/05/18 11:56:17;;;;;;;3.80;1.50;;;;;;;29.83;36.90;101430.39;108072;1278;77370;-85
2022/05/18 12:01:53;;;;;;;2.60;1.60;;;;;;;30.12;34.63;101428.31;108170;1278;72872;-84
2022/05/18 12:04:56;;;;;;;3.70;1.40;;;;;;;30.26;34.54;101421.73;108182;1280;61348;-84
2022/05/18 12:07:30;;;;;;;3.00;1.80;;;;;;;30.54;34.71;101426.58;108014;1279;60736;-84
2022/05/18 12:10:11;;;;;;;3.10;1.40;;;;;;;30.66;34.43;101421.83;108114;1279;76483;-83
2022/05/18 12:12:53;;;;;;;4.10;1.80;;;;;;;30.91;34.25;101420.11;107906;1279;72408;-83
2022/05/18 12:15:26;;;;;;;2.10;1.60;;;;;;;31.22;33.37;101415.67;108127;1278;74177;-83
2022/05/18 12:17:59;;;;;;;3.90;1.70;;;;;;;31.46;33.40;101418.01;108177;1278;59846;-83
2022/05/18 12:20:32;;;;;;;5.40;1.90;;;;;;;31.64;33.37;101421.46;108097;1279;61485;-83
2022/05/18 12:23:02;;;;;;;6.80;2.70;;;;;;;31.83;32.90;101416.86;108203;1277;74988;-85
2022/05/18 12:25:30;;;;;;;6.90;2.60;;;;;;;31.97;32.40;101418.60;108165;1278;73198;-84
2022/05/18 12:28:00;;;;;;;4.50;1.60;;;;;;;32.22;32.75;101415.48;108054;1280;72936;-85
2022/05/18 12:30:29;;;;;;;3.80;1.50;;;;;;;32.57;32.11;101412.64;107966;1280;60386;-85
2022/05/18 12:32:57;;;;;;;2.20;1.50;;;;;;;33.07;31.74;101413.99;107784;1280;61857;-85
2022/05/18 12:35:32;;;;;;;3.00;1.40;;;;;;;33.35;30.80;101416.95;107930;1279;76356;-86
2022/05/18 12:38:05;;;;;;;3.30;1.20;;;;;;;33.62;30.28;101419.59;107985;1279;73131;-86
2022/05/18 12:40:50;;;;;;;2.30;1.50;;;;;;;33.75;29.80;101422.13;108023;1279;74152;-85
2022/05/18 12:43:40;;;;;;;3.50;1.40;;;;;;;34.19;30.25;101414.92;108142;1278;61942;-86
2022/05/18 12:46:28;;;;;;;3.30;1.40;;;;;;;34.81;29.54;101415.33;108128;1278;60628;-85
2022/05/18 12:49:00;;;;;;;2.70;1.20;;;;;;;35.38;28.07;101417.95;108048;1280;75006;-85
2022/05/18 12:51:26;;;;;;;3.20;1.20;;;;;;;36.06;26.85;101416.63;108118;1279;72712;-85
2022/05/18 12:54:15;;;;;;;3.90;1.40;;;;;;;36.95;26.07;101414.03;107991;1279;59169;-85
2022/05/18 12:56:52;;;;;;;5.20;1.20;;;;;;;37.98;25.04;101416.17;108042;1280;60634;-85
2022/05/18 12:59:24;;;;;;;5.10;1.30;;;;;;;38.38;24.05;101419.88;108373;1277;61276;-85
2022/05/18 13:02:00;;;;;;;3.20;1.20;;;;;;;37.53;23.85;101417.75;107983;1279;77889;-85